createdAt,value
2018-09-24T00:00:34.846Z,0.00
2018-09-24T00:01:34.877Z,0.00
2018-09-24T00:02:34.908Z,0.00
2018-09-24T00:03:34.939Z,0.00
2018-09-24T00:04:34.974Z,0.00
2018-09-24T00:05:35.002Z,0.00
2018-09-24T00:06:35.032Z,0.00
2018-09-24T00:07:35.066Z,0.00
2018-09-24T00:08:35.096Z,0.00
2018-09-24T00:09:35.128Z,0.00
2018-09-24T00:10:35.157Z,0.00
2018-09-24T00:11:35.189Z,0.00
2018-09-24T00:12:35.221Z,0.00
2018-09-24T00:13:35.257Z,0.00
2018-09-24T00:14:35.283Z,0.00
2018-09-24T00:15:35.313Z,0.00
2018-09-24T00:16:35.344Z,0.00
2018-09-24T00:17:35.377Z,0.00
2018-09-24T00:18:35.407Z,0.00
2018-09-24T00:19:35.437Z,0.00
2018-09-24T00:20:35.474Z,0.00
2018-09-24T00:21:35.501Z,0.00
2018-09-24T00:22:35.530Z,0.00
2018-09-24T00:23:35.562Z,0.00
2018-09-24T00:24:35.593Z,0.00
2018-09-24T00:25:35.625Z,0.00
2018-09-24T00:26:35.655Z,0.00
2018-09-24T00:27:35.687Z,0.00
2018-09-24T00:28:35.719Z,0.00
2018-09-24T00:29:35.749Z,0.00
2018-09-24T00:30:35.780Z,0.00
2018-09-24T00:31:35.810Z,0.00
2018-09-24T00:32:35.842Z,0.00
2018-09-24T00:33:35.881Z,0.00
2018-09-24T00:34:35.904Z,0.00
2018-09-24T00:35:35.939Z,0.00
2018-09-24T00:36:35.967Z,0.00
2018-09-24T00:37:35.998Z,0.00
2018-09-24T00:38:36.033Z,0.00
2018-09-24T00:39:36.061Z,0.00
2018-09-24T00:40:36.090Z,0.00
2018-09-24T00:41:36.125Z,0.00
2018-09-24T00:42:36.158Z,0.00
2018-09-24T00:43:36.184Z,0.00
2018-09-24T00:44:36.216Z,0.00
2018-09-24T00:45:36.247Z,0.00
2018-09-24T00:46:36.279Z,0.00
2018-09-24T00:47:36.309Z,0.00
2018-09-24T00:48:36.341Z,0.00
2018-09-24T00:49:36.373Z,0.00
2018-09-24T00:50:36.405Z,0.00
2018-09-24T00:51:36.434Z,0.00
2018-09-24T00:52:36.465Z,0.00
2018-09-24T00:53:36.497Z,0.00
2018-09-24T00:54:36.531Z,0.00
2018-09-24T00:55:36.560Z,0.00
2018-09-24T00:56:36.591Z,0.00
2018-09-24T00:57:36.621Z,0.00
2018-09-24T00:58:36.653Z,0.00
2018-09-24T00:59:36.687Z,0.00
2018-09-24T01:00:36.716Z,0.00
2018-09-24T01:01:36.748Z,0.00
2018-09-24T01:02:36.779Z,0.00
2018-09-24T01:03:36.811Z,0.00
2018-09-24T01:04:36.842Z,0.00
2018-09-24T01:05:36.873Z,0.00
2018-09-24T01:06:36.904Z,0.00
2018-09-24T01:07:36.934Z,0.00
2018-09-24T01:08:36.966Z,0.00
2018-09-24T01:09:36.997Z,0.00
2018-09-24T01:10:37.028Z,0.00
2018-09-24T01:11:37.062Z,0.00
2018-09-24T01:12:37.102Z,0.00
2018-09-24T01:13:37.121Z,0.00
2018-09-24T01:14:37.153Z,0.00
2018-09-24T01:15:37.185Z,0.00
2018-09-24T01:16:37.215Z,0.00
2018-09-24T01:17:37.250Z,0.00
2018-09-24T01:18:37.278Z,0.00
2018-09-24T01:19:37.309Z,0.00
2018-09-24T01:20:37.340Z,0.00
2018-09-24T01:21:37.371Z,0.00
2018-09-24T01:22:37.401Z,0.00
2018-09-24T01:23:37.435Z,0.00
2018-09-24T01:24:37.465Z,0.00
2018-09-24T01:25:37.496Z,0.00
2018-09-24T01:26:37.526Z,0.00
2018-09-24T01:27:37.559Z,0.00
2018-09-24T01:28:37.590Z,0.00
2018-09-24T01:29:37.620Z,0.00
2018-09-24T01:30:37.651Z,0.00
2018-09-24T01:31:37.683Z,0.00
2018-09-24T01:32:37.713Z,0.00
2018-09-24T01:33:37.744Z,0.00
2018-09-24T01:34:37.776Z,0.00
2018-09-24T01:35:37.806Z,0.00
2018-09-24T01:36:37.839Z,0.00
2018-09-24T01:37:37.868Z,0.00
2018-09-24T01:38:37.897Z,0.00
2018-09-24T01:39:37.929Z,0.00
2018-09-24T01:40:37.961Z,0.00
2018-09-24T01:41:37.992Z,0.00
2018-09-24T01:42:38.022Z,0.00
2018-09-24T01:43:38.054Z,0.00
2018-09-24T01:44:38.087Z,0.00
2018-09-24T01:45:38.118Z,0.00
2018-09-24T01:46:38.147Z,0.00
2018-09-24T01:47:38.176Z,0.00
2018-09-24T01:48:38.210Z,0.00
2018-09-24T01:49:38.241Z,0.00
2018-09-24T01:50:38.269Z,0.00
2018-09-24T01:51:38.300Z,0.00
2018-09-24T01:52:38.331Z,0.00
2018-09-24T01:53:38.363Z,0.00
2018-09-24T01:54:38.393Z,0.00
2018-09-24T01:55:38.424Z,0.00
2018-09-24T01:56:38.454Z,0.00
2018-09-24T01:57:38.485Z,0.00
2018-09-24T01:58:38.517Z,0.00
2018-09-24T01:59:38.546Z,0.00
2018-09-24T02:00:38.577Z,0.00
2018-09-24T02:01:38.608Z,0.00
2018-09-24T02:02:38.640Z,0.00
2018-09-24T02:03:38.671Z,0.00
2018-09-24T02:04:38.700Z,0.00
2018-09-24T02:05:38.731Z,0.00
2018-09-24T02:06:38.760Z,0.00
2018-09-24T02:07:38.792Z,0.00
2018-09-24T02:08:38.823Z,0.00
2018-09-24T02:09:38.853Z,0.00
2018-09-24T02:10:38.883Z,0.00
2018-09-24T02:11:38.914Z,0.00
2018-09-24T02:12:38.945Z,0.00
2018-09-24T02:13:38.976Z,0.00
2018-09-24T02:14:39.006Z,0.00
2018-09-24T02:15:39.037Z,0.00
2018-09-24T02:16:39.068Z,0.00
2018-09-24T02:17:39.099Z,0.00
2018-09-24T02:18:39.132Z,0.00
2018-09-24T02:19:39.159Z,0.00
2018-09-24T02:20:39.189Z,0.00
2018-09-24T02:21:39.221Z,0.00
2018-09-24T02:22:39.251Z,0.00
2018-09-24T02:23:39.280Z,0.00
2018-09-24T02:24:39.312Z,0.00
2018-09-24T02:25:39.343Z,0.00
2018-09-24T02:26:39.377Z,0.00
2018-09-24T02:27:39.404Z,0.00
2018-09-24T02:28:39.435Z,0.00
2018-09-24T02:29:39.465Z,0.00
2018-09-24T02:30:39.495Z,0.00
2018-09-24T02:31:39.531Z,0.00
2018-09-24T02:32:39.556Z,0.00
2018-09-24T02:33:39.586Z,0.00
2018-09-24T02:34:39.616Z,0.00
2018-09-24T02:35:39.646Z,0.00
2018-09-24T02:36:39.677Z,0.00
2018-09-24T02:37:39.712Z,0.00
2018-09-24T02:38:39.740Z,0.00
2018-09-24T02:39:39.767Z,0.00
2018-09-24T02:40:39.800Z,0.00
2018-09-24T02:41:39.830Z,0.00
2018-09-24T02:42:39.858Z,0.00
2018-09-24T02:43:39.898Z,0.00
2018-09-24T02:44:39.919Z,0.00
2018-09-24T02:45:39.950Z,0.00
2018-09-24T02:46:39.980Z,0.00
2018-09-24T02:47:40.009Z,0.00
2018-09-24T02:48:40.041Z,0.00
2018-09-24T02:49:40.073Z,0.00
2018-09-24T02:50:40.101Z,0.00
2018-09-24T02:51:40.131Z,0.00
2018-09-24T02:52:40.160Z,0.00
2018-09-24T02:53:40.191Z,0.00
2018-09-24T02:54:40.220Z,0.00
2018-09-24T02:55:40.250Z,0.00
2018-09-24T02:56:40.283Z,0.00
2018-09-24T02:57:40.310Z,0.00
2018-09-24T02:58:40.340Z,0.00
2018-09-24T02:59:40.370Z,0.00
2018-09-24T03:00:40.401Z,0.00
2018-09-24T03:01:40.431Z,0.00
2018-09-24T03:02:40.460Z,0.00
2018-09-24T03:03:40.491Z,0.00
2018-09-24T03:04:40.521Z,0.00
2018-09-24T03:05:40.555Z,0.00
2018-09-24T03:06:40.589Z,0.00
2018-09-24T03:07:40.611Z,0.00
2018-09-24T03:08:40.641Z,0.00
2018-09-24T03:09:40.670Z,0.00
2018-09-24T03:10:40.701Z,0.00
2018-09-24T03:11:40.731Z,0.00
2018-09-24T03:12:40.761Z,0.00
2018-09-24T03:13:40.792Z,0.00
2018-09-24T03:14:40.820Z,0.00
2018-09-24T03:15:40.852Z,0.00
2018-09-24T03:16:40.881Z,0.00
2018-09-24T03:17:40.913Z,0.00
2018-09-24T03:18:40.939Z,0.00
2018-09-24T03:19:40.970Z,0.00
2018-09-24T03:20:40.999Z,0.00
2018-09-24T03:21:41.030Z,0.00
2018-09-24T03:22:41.060Z,0.00
2018-09-24T03:23:41.095Z,0.00
2018-09-24T03:24:41.121Z,0.00
2018-09-24T03:25:41.150Z,0.00
2018-09-24T03:26:41.180Z,0.00
2018-09-24T03:27:41.209Z,0.00
2018-09-24T03:28:41.239Z,0.00
2018-09-24T03:29:41.271Z,0.00
2018-09-24T03:30:41.298Z,0.00
2018-09-24T03:31:41.329Z,0.00
2018-09-24T03:32:41.360Z,0.00
2018-09-24T03:33:41.388Z,0.00
2018-09-24T03:34:41.421Z,0.00
2018-09-24T03:35:41.451Z,0.00
2018-09-24T03:36:41.477Z,0.00
2018-09-24T03:37:41.508Z,0.00
2018-09-24T03:38:41.537Z,0.00
2018-09-24T03:39:41.565Z,0.00
2018-09-24T03:40:41.596Z,0.00
2018-09-24T03:41:41.682Z,0.00
2018-09-24T03:42:41.656Z,0.00
2018-09-24T03:43:41.686Z,0.00
2018-09-24T03:44:41.715Z,0.00
2018-09-24T03:45:41.745Z,0.00
2018-09-24T03:46:41.773Z,0.00
2018-09-24T03:47:41.803Z,0.00
2018-09-24T03:48:41.834Z,0.00
2018-09-24T03:49:41.863Z,0.00
2018-09-24T03:50:41.892Z,0.00
2018-09-24T03:51:41.921Z,0.00
2018-09-24T03:52:41.951Z,0.00
2018-09-24T03:53:41.980Z,0.00
2018-09-24T03:54:42.011Z,0.00
2018-09-24T03:55:42.041Z,0.00
2018-09-24T03:56:42.070Z,0.00
2018-09-24T03:57:42.099Z,0.00
2018-09-24T03:58:42.128Z,0.00
2018-09-24T03:59:42.158Z,0.00
2018-09-24T04:00:42.188Z,0.00
2018-09-24T04:01:42.218Z,0.00
2018-09-24T04:02:42.246Z,0.00
2018-09-24T04:03:42.277Z,0.00
2018-09-24T04:04:42.307Z,0.00
2018-09-24T04:05:42.337Z,0.00
2018-09-24T04:06:42.365Z,0.00
2018-09-24T04:07:42.396Z,0.00
2018-09-24T04:08:42.425Z,0.00
2018-09-24T04:09:42.582Z,0.00
2018-09-24T04:10:42.521Z,0.00
2018-09-24T04:11:42.514Z,0.00
2018-09-24T04:12:42.543Z,0.00
2018-09-24T04:13:42.572Z,0.00
2018-09-24T04:14:42.602Z,0.00
2018-09-24T04:15:42.632Z,0.00
2018-09-24T04:16:42.661Z,0.00
2018-09-24T04:17:42.692Z,0.00
2018-09-24T04:18:42.728Z,0.00
2018-09-24T04:19:42.823Z,0.00
2018-09-24T04:20:42.780Z,0.00
2018-09-24T04:21:42.816Z,0.00
2018-09-24T04:22:42.840Z,0.00
2018-09-24T04:23:42.866Z,0.00
2018-09-24T04:24:42.898Z,0.00
2018-09-24T04:25:42.927Z,0.00
2018-09-24T04:26:42.956Z,0.00
2018-09-24T04:27:42.990Z,0.00
2018-09-24T04:28:43.023Z,0.00
2018-09-24T04:29:43.046Z,0.00
2018-09-24T04:30:43.074Z,0.00
2018-09-24T04:31:43.104Z,0.00
2018-09-24T04:32:43.135Z,0.00
2018-09-24T04:33:43.164Z,0.00
2018-09-24T04:34:43.192Z,0.00
2018-09-24T04:35:43.224Z,0.00
2018-09-24T04:36:43.251Z,0.00
2018-09-24T04:37:43.281Z,0.00
2018-09-24T04:38:43.310Z,0.00
2018-09-24T04:39:43.348Z,0.00
2018-09-24T04:40:43.372Z,0.00
2018-09-24T04:41:43.401Z,0.00
2018-09-24T04:42:43.429Z,0.00
2018-09-24T04:43:43.459Z,0.00
2018-09-24T04:44:43.488Z,0.00
2018-09-24T04:45:43.518Z,0.00
2018-09-24T04:46:43.549Z,0.00
2018-09-24T04:47:43.577Z,0.00
2018-09-24T04:48:43.607Z,0.00
2018-09-24T04:49:43.638Z,0.00
2018-09-24T04:50:43.665Z,0.00
2018-09-24T04:51:43.695Z,0.00
2018-09-24T04:52:43.725Z,0.00
2018-09-24T04:53:43.753Z,0.00
2018-09-24T04:54:43.783Z,0.00
2018-09-24T04:55:43.812Z,0.00
2018-09-24T04:56:43.843Z,0.00
2018-09-24T04:57:43.872Z,0.00
2018-09-24T04:58:43.954Z,0.00
2018-09-24T04:59:43.931Z,0.00
2018-09-24T05:00:43.962Z,0.00
2018-09-24T05:01:43.990Z,0.00
2018-09-24T05:02:44.018Z,0.00
2018-09-24T05:03:44.048Z,0.00
2018-09-24T05:04:44.079Z,0.00
2018-09-24T05:05:44.107Z,0.00
2018-09-24T05:06:44.137Z,0.00
2018-09-24T05:07:44.166Z,0.00
2018-09-24T05:08:44.195Z,0.00
2018-09-24T05:09:44.225Z,0.00
2018-09-24T05:10:44.254Z,0.00
2018-09-24T05:11:44.283Z,0.00
2018-09-24T05:12:44.313Z,0.00
2018-09-24T05:13:44.344Z,0.00
2018-09-24T05:14:44.373Z,0.00
2018-09-24T05:15:44.442Z,0.00
2018-09-24T05:16:44.431Z,0.00
2018-09-24T05:17:44.619Z,0.00
2018-09-24T05:18:44.489Z,0.00
2018-09-24T05:19:44.519Z,0.00
2018-09-24T05:20:44.549Z,0.00
2018-09-24T05:21:44.582Z,5.63
2018-09-24T05:22:44.608Z,5.63
2018-09-24T05:23:44.636Z,5.63
2018-09-24T05:24:44.667Z,5.63
2018-09-24T05:25:44.697Z,5.63
2018-09-24T05:26:44.726Z,5.63
2018-09-24T05:27:44.755Z,5.63
2018-09-24T05:28:44.784Z,5.63
2018-09-24T05:29:44.814Z,11.25
2018-09-24T05:30:44.843Z,11.25
2018-09-24T05:31:44.874Z,11.25
2018-09-24T05:32:44.903Z,16.88
2018-09-24T05:33:44.932Z,16.88
2018-09-24T05:34:44.961Z,22.50
2018-09-24T05:35:44.991Z,22.50
2018-09-24T05:36:45.021Z,28.13
2018-09-24T05:37:45.052Z,28.13
2018-09-24T05:38:45.080Z,33.75
2018-09-24T05:39:45.110Z,33.75
2018-09-24T05:40:45.140Z,39.38
2018-09-24T05:41:45.170Z,39.38
2018-09-24T05:42:45.197Z,39.38
2018-09-24T05:43:45.228Z,45.00
2018-09-24T05:44:45.258Z,45.00
2018-09-24T05:45:45.289Z,50.63
2018-09-24T05:46:45.324Z,50.63
2018-09-24T05:47:45.371Z,56.25
2018-09-24T05:48:45.380Z,56.25
2018-09-24T05:49:45.407Z,56.25
2018-09-24T05:50:45.436Z,61.88
2018-09-24T05:51:45.467Z,56.25
2018-09-24T05:52:45.498Z,61.88
2018-09-24T05:53:45.529Z,67.50
2018-09-24T05:54:45.556Z,67.50
2018-09-24T05:55:45.585Z,67.50
2018-09-24T05:56:45.615Z,73.13
2018-09-24T05:57:45.645Z,73.13
2018-09-24T05:58:45.674Z,73.13
2018-09-24T05:59:45.703Z,73.13
2018-09-24T06:00:45.733Z,73.13
2018-09-24T06:01:45.764Z,78.75
2018-09-24T06:02:45.795Z,78.75
2018-09-24T06:03:45.825Z,78.75
2018-09-24T06:04:45.853Z,78.75
2018-09-24T06:05:45.883Z,78.75
2018-09-24T06:06:45.915Z,78.75
2018-09-24T06:07:45.942Z,84.38
2018-09-24T06:08:45.972Z,84.38
2018-09-24T06:09:46.002Z,84.38
2018-09-24T06:10:46.031Z,84.38
2018-09-24T06:11:46.062Z,90.00
2018-09-24T06:12:46.091Z,90.00
2018-09-24T06:13:46.162Z,90.00
2018-09-24T06:14:46.153Z,90.00
2018-09-24T06:15:46.182Z,95.63
2018-09-24T06:16:46.210Z,95.63
2018-09-24T06:17:46.242Z,95.63
2018-09-24T06:18:46.269Z,95.63
2018-09-24T06:19:46.300Z,101.25
2018-09-24T06:20:46.330Z,101.25
2018-09-24T06:21:46.360Z,101.25
2018-09-24T06:22:46.388Z,101.25
2018-09-24T06:23:46.420Z,101.25
2018-09-24T06:24:46.448Z,106.88
2018-09-24T06:25:46.479Z,106.88
2018-09-24T06:26:46.508Z,112.50
2018-09-24T06:27:46.538Z,106.88
2018-09-24T06:28:46.569Z,112.50
2018-09-24T06:29:46.599Z,118.13
2018-09-24T06:30:46.629Z,112.50
2018-09-24T06:31:46.658Z,112.50
2018-09-24T06:32:46.689Z,112.50
2018-09-24T06:33:46.719Z,118.13
2018-09-24T06:34:46.748Z,118.13
2018-09-24T06:35:46.778Z,118.13
2018-09-24T06:36:46.808Z,118.13
2018-09-24T06:37:46.838Z,118.13
2018-09-24T06:38:46.867Z,123.75
2018-09-24T06:39:46.896Z,118.13
2018-09-24T06:40:46.931Z,123.75
2018-09-24T06:41:46.959Z,123.75
2018-09-24T06:42:46.988Z,123.75
2018-09-24T06:43:47.019Z,123.75
2018-09-24T06:44:47.048Z,123.75
2018-09-24T06:45:47.080Z,129.38
2018-09-24T06:46:47.109Z,129.38
2018-09-24T06:47:47.142Z,129.38
2018-09-24T06:48:47.168Z,129.38
2018-09-24T06:49:47.253Z,135.00
2018-09-24T06:50:47.230Z,135.00
2018-09-24T06:51:47.258Z,135.00
2018-09-24T06:52:47.289Z,135.00
2018-09-24T06:53:47.319Z,140.63
2018-09-24T06:54:47.349Z,123.75
2018-09-24T06:55:47.379Z,140.63
2018-09-24T06:56:47.415Z,146.25
2018-09-24T06:57:47.441Z,146.25
2018-09-24T06:58:47.470Z,146.25
2018-09-24T06:59:47.501Z,129.38
2018-09-24T07:00:47.531Z,140.63
2018-09-24T07:01:47.562Z,151.88
2018-09-24T07:02:47.592Z,135.00
2018-09-24T07:03:47.623Z,146.25
2018-09-24T07:04:47.653Z,151.88
2018-09-24T07:05:47.717Z,157.50
2018-09-24T07:06:47.712Z,157.50
2018-09-24T07:07:47.745Z,157.50
2018-09-24T07:08:47.775Z,151.88
2018-09-24T07:09:47.805Z,157.50
2018-09-24T07:10:47.834Z,168.75
2018-09-24T07:11:47.883Z,140.63
2018-09-24T07:12:47.897Z,163.13
2018-09-24T07:13:47.928Z,163.13
2018-09-24T07:14:47.957Z,180.00
2018-09-24T07:15:47.990Z,146.25
2018-09-24T07:16:48.019Z,174.38
2018-09-24T07:17:48.054Z,174.38
2018-09-24T07:18:48.083Z,174.38
2018-09-24T07:19:48.112Z,174.38
2018-09-24T07:20:48.141Z,146.25
2018-09-24T07:21:48.173Z,146.25
2018-09-24T07:22:48.203Z,185.63
2018-09-24T07:23:48.235Z,157.50
2018-09-24T07:24:48.265Z,157.50
2018-09-24T07:25:48.296Z,168.75
2018-09-24T07:26:48.326Z,213.75
2018-09-24T07:27:48.365Z,180.00
2018-09-24T07:28:48.388Z,168.75
2018-09-24T07:29:48.437Z,174.38
2018-09-24T07:30:48.450Z,163.13
2018-09-24T07:31:48.482Z,174.38
2018-09-24T07:32:48.513Z,180.00
2018-09-24T07:33:48.543Z,174.38
2018-09-24T07:34:48.573Z,196.88
2018-09-24T07:35:48.606Z,202.50
2018-09-24T07:36:48.637Z,191.25
2018-09-24T07:37:48.668Z,191.25
2018-09-24T07:38:48.699Z,185.63
2018-09-24T07:39:48.731Z,180.00
2018-09-24T07:40:48.761Z,174.38
2018-09-24T07:41:48.793Z,196.88
2018-09-24T07:42:48.825Z,185.63
2018-09-24T07:43:48.855Z,202.50
2018-09-24T07:44:48.888Z,236.25
2018-09-24T07:45:48.918Z,225.00
2018-09-24T07:46:48.950Z,208.13
2018-09-24T07:47:48.981Z,185.63
2018-09-24T07:48:49.012Z,208.13
2018-09-24T07:49:49.045Z,208.13
2018-09-24T07:50:49.075Z,230.63
2018-09-24T07:51:49.108Z,275.63
2018-09-24T07:52:49.138Z,275.63
2018-09-24T07:53:49.172Z,258.75
2018-09-24T07:54:49.201Z,219.38
2018-09-24T07:55:49.263Z,253.13
2018-09-24T07:56:49.265Z,236.25
2018-09-24T07:57:49.297Z,241.88
2018-09-24T07:58:49.332Z,326.25
2018-09-24T07:59:49.359Z,264.38
2018-09-24T08:00:49.395Z,331.88
2018-09-24T08:01:49.424Z,253.13
2018-09-24T08:02:49.462Z,241.88
2018-09-24T08:03:49.487Z,247.50
2018-09-24T08:04:49.523Z,258.75
2018-09-24T08:05:49.553Z,247.50
2018-09-24T08:06:49.584Z,258.75
2018-09-24T08:07:49.616Z,315.00
2018-09-24T08:08:49.648Z,348.75
2018-09-24T08:09:49.680Z,416.25
2018-09-24T08:10:49.715Z,399.38
2018-09-24T08:11:49.746Z,365.63
2018-09-24T08:12:49.817Z,315.00
2018-09-24T08:13:49.809Z,281.25
2018-09-24T08:14:49.842Z,382.50
2018-09-24T08:15:49.875Z,410.63
2018-09-24T08:16:49.912Z,326.25
2018-09-24T08:17:49.939Z,326.25
2018-09-24T08:18:49.972Z,343.13
2018-09-24T08:19:50.004Z,360.00
2018-09-24T08:20:50.039Z,331.88
2018-09-24T08:21:50.071Z,303.75
2018-09-24T08:22:50.103Z,281.25
2018-09-24T08:23:50.136Z,298.13
2018-09-24T08:24:50.170Z,331.88
2018-09-24T08:25:50.202Z,286.88
2018-09-24T08:26:50.235Z,298.13
2018-09-24T08:27:50.269Z,275.63
2018-09-24T08:28:50.320Z,354.38
2018-09-24T08:29:50.335Z,343.13
2018-09-24T08:30:50.368Z,433.13
2018-09-24T08:31:50.401Z,478.13
2018-09-24T08:32:50.434Z,286.88
2018-09-24T08:33:50.467Z,236.25
2018-09-24T08:34:50.498Z,1001.25
2018-09-24T08:35:50.533Z,270.00
2018-09-24T08:36:50.567Z,241.88
2018-09-24T08:37:50.601Z,1383.75
2018-09-24T08:38:50.634Z,1468.13
2018-09-24T08:39:50.667Z,281.25
2018-09-24T08:40:50.702Z,241.88
2018-09-24T08:41:50.736Z,225.00
2018-09-24T08:42:50.769Z,461.25
2018-09-24T08:43:50.804Z,843.75
2018-09-24T08:44:50.838Z,315.00
2018-09-24T08:45:50.873Z,270.00
2018-09-24T08:46:50.906Z,270.00
2018-09-24T08:47:50.941Z,270.00
2018-09-24T08:48:50.976Z,961.88
2018-09-24T08:49:51.028Z,978.75
2018-09-24T08:50:51.044Z,1023.75
2018-09-24T08:51:51.078Z,438.75
2018-09-24T08:52:51.119Z,337.50
2018-09-24T08:53:51.149Z,410.63
2018-09-24T08:54:51.184Z,1215.00
2018-09-24T08:55:51.219Z,1265.63
2018-09-24T08:56:51.315Z,1732.50
2018-09-24T08:57:51.291Z,635.63
2018-09-24T08:58:51.327Z,455.63
2018-09-24T08:59:51.363Z,1788.75
2018-09-24T09:00:51.400Z,337.50
2018-09-24T09:01:51.437Z,292.50
2018-09-24T09:02:51.545Z,326.25
2018-09-24T09:03:51.511Z,309.38
2018-09-24T09:04:51.547Z,416.25
2018-09-24T09:05:51.584Z,298.13
2018-09-24T09:06:51.619Z,410.63
2018-09-24T09:07:51.656Z,270.00
2018-09-24T09:08:51.691Z,258.75
2018-09-24T09:09:51.729Z,399.38
2018-09-24T09:10:51.765Z,894.38
2018-09-24T09:11:51.801Z,900.00
2018-09-24T09:12:51.838Z,1991.25
2018-09-24T09:13:51.874Z,1946.25
2018-09-24T09:14:51.908Z,1715.63
2018-09-24T09:15:51.946Z,1884.38
2018-09-24T09:16:51.983Z,1912.50
2018-09-24T09:17:52.020Z,1923.75
2018-09-24T09:18:52.057Z,1828.13
2018-09-24T09:19:52.096Z,1794.38
2018-09-24T09:20:52.132Z,1935.00
2018-09-24T09:21:52.172Z,1951.88
2018-09-24T09:22:52.208Z,1996.88
2018-09-24T09:23:52.301Z,2070.00
2018-09-24T09:24:52.288Z,450.00
2018-09-24T09:25:52.331Z,331.88
2018-09-24T09:26:52.367Z,286.88
2018-09-24T09:27:52.406Z,466.88
2018-09-24T09:28:52.447Z,2154.38
2018-09-24T09:29:52.487Z,1861.88
2018-09-24T09:30:52.523Z,1940.63
2018-09-24T09:31:52.564Z,1867.50
2018-09-24T09:32:52.607Z,2053.13
2018-09-24T09:33:52.647Z,2216.25
2018-09-24T09:34:52.684Z,2160.00
2018-09-24T09:35:52.725Z,2210.63
2018-09-24T09:36:52.766Z,2244.38
2018-09-24T09:37:52.808Z,2216.25
2018-09-24T09:38:52.849Z,2255.63
2018-09-24T09:39:52.890Z,2244.38
2018-09-24T09:40:52.938Z,2295.00
2018-09-24T09:41:52.975Z,2278.13
2018-09-24T09:42:53.021Z,2278.13
2018-09-24T09:43:53.062Z,2278.13
2018-09-24T09:44:53.102Z,2250.00
2018-09-24T09:45:53.145Z,2261.25
2018-09-24T09:46:53.239Z,2205.00
2018-09-24T09:47:53.229Z,2103.75
2018-09-24T09:48:53.275Z,2081.25
2018-09-24T09:49:53.317Z,399.38
2018-09-24T09:50:53.361Z,315.00
2018-09-24T09:51:53.404Z,320.63
2018-09-24T09:52:53.448Z,2362.50
2018-09-24T09:53:53.491Z,2401.88
2018-09-24T09:54:53.533Z,2323.13
2018-09-24T09:55:53.576Z,2221.88
2018-09-24T09:56:53.647Z,1186.88
2018-09-24T09:57:53.662Z,556.88
2018-09-24T09:58:56.790Z,517.50
2018-09-24T09:59:53.748Z,388.13
2018-09-24T10:00:53.791Z,450.00
2018-09-24T10:01:53.833Z,472.50
2018-09-24T10:02:53.874Z,624.38
2018-09-24T10:03:53.917Z,405.00
2018-09-24T10:04:54.028Z,2424.38
2018-09-24T10:05:53.999Z,405.00
2018-09-24T10:06:54.040Z,2407.50
2018-09-24T10:07:54.083Z,2418.75
2018-09-24T10:08:54.121Z,2435.63
2018-09-24T10:09:54.165Z,2356.88
2018-09-24T10:10:54.201Z,2356.88
2018-09-24T10:11:54.244Z,2390.63
2018-09-24T10:12:54.285Z,2373.75
2018-09-24T10:13:54.328Z,2407.50
2018-09-24T10:14:54.367Z,2379.38
2018-09-24T10:15:54.409Z,2469.38
2018-09-24T10:16:54.456Z,2452.50
2018-09-24T10:17:54.537Z,2475.00
2018-09-24T10:18:54.537Z,2430.00
2018-09-24T10:19:54.581Z,2475.00
2018-09-24T10:20:54.624Z,2525.63
2018-09-24T10:21:54.668Z,2542.50
2018-09-24T10:22:54.713Z,2593.13
2018-09-24T10:23:54.756Z,2677.50
2018-09-24T10:24:54.801Z,2694.38
2018-09-24T10:25:54.846Z,2638.13
2018-09-24T10:26:54.890Z,2683.13
2018-09-24T10:27:54.936Z,2688.75
2018-09-24T10:28:54.980Z,2700.00
2018-09-24T10:29:55.027Z,2767.50
2018-09-24T10:30:55.071Z,2756.25
2018-09-24T10:31:55.117Z,2666.25
2018-09-24T10:32:55.164Z,2655.00
2018-09-24T10:33:55.209Z,2536.88
2018-09-24T10:34:55.255Z,2531.25
2018-09-24T10:35:55.305Z,2536.88
2018-09-24T10:36:55.350Z,2649.38
2018-09-24T10:37:55.398Z,2745.00
2018-09-24T10:38:55.443Z,2705.63
2018-09-24T10:39:55.493Z,2750.63
2018-09-24T10:40:55.538Z,2705.63
2018-09-24T10:41:55.586Z,2716.88
2018-09-24T10:42:55.633Z,2722.50
2018-09-24T10:43:55.681Z,461.25
2018-09-24T10:44:55.728Z,438.75
2018-09-24T10:45:55.811Z,405.00
2018-09-24T10:46:55.822Z,821.25
2018-09-24T10:47:55.870Z,2728.13
2018-09-24T10:48:55.916Z,2700.00
2018-09-24T10:49:55.963Z,2733.75
2018-09-24T10:50:56.009Z,2716.88
2018-09-24T10:51:56.054Z,2778.75
2018-09-24T10:52:56.120Z,2711.25
2018-09-24T10:53:56.149Z,2700.00
2018-09-24T10:54:56.195Z,2559.38
2018-09-24T10:55:56.257Z,2778.75
2018-09-24T10:56:56.289Z,2745.00
2018-09-24T10:57:56.337Z,2761.88
2018-09-24T10:58:56.384Z,2598.75
2018-09-24T10:59:56.431Z,2508.75
2018-09-24T11:00:56.478Z,2638.13
2018-09-24T11:01:56.528Z,2728.13
2018-09-24T11:02:56.574Z,2801.25
2018-09-24T11:03:56.622Z,2851.88
2018-09-24T11:04:56.748Z,2818.13
2018-09-24T11:05:56.719Z,2953.13
2018-09-24T11:06:56.767Z,2953.13
2018-09-24T11:07:56.828Z,2908.13
2018-09-24T11:08:56.862Z,3054.38
2018-09-24T11:09:56.913Z,562.50
2018-09-24T11:10:56.963Z,438.75
2018-09-24T11:11:57.009Z,365.63
2018-09-24T11:12:57.059Z,360.00
2018-09-24T11:13:57.114Z,2604.38
2018-09-24T11:14:57.183Z,2700.00
2018-09-24T11:15:57.345Z,2716.88
2018-09-24T11:16:57.487Z,2756.25
2018-09-24T11:17:57.414Z,2761.88
2018-09-24T11:18:57.338Z,2756.25
2018-09-24T11:19:57.385Z,2874.38
2018-09-24T11:20:57.432Z,2030.63
2018-09-24T11:21:57.494Z,961.88
2018-09-24T11:22:57.527Z,489.38
2018-09-24T11:23:57.574Z,2700.00
2018-09-24T11:24:57.621Z,2812.50
2018-09-24T11:25:57.664Z,2784.38
2018-09-24T11:26:57.710Z,2812.50
2018-09-24T11:27:57.758Z,2790.00
2018-09-24T11:28:57.805Z,2683.13
2018-09-24T11:29:57.854Z,2700.00
2018-09-24T11:30:57.897Z,2761.88
2018-09-24T11:31:57.944Z,2851.88
2018-09-24T11:32:57.995Z,2953.13
2018-09-24T11:33:58.040Z,2919.38
2018-09-24T11:34:58.086Z,2846.25
2018-09-24T11:35:58.137Z,2835.00
2018-09-24T11:37:58.231Z,2958.75
2018-09-24T11:38:58.278Z,2925.00
2018-09-24T11:39:58.327Z,2851.88
2018-09-24T11:40:58.376Z,2919.38
2018-09-24T11:41:58.427Z,3071.25
2018-09-24T11:42:58.473Z,2458.13
2018-09-24T11:43:58.522Z,3054.38
2018-09-24T11:44:59.382Z,2210.63
2018-09-24T11:45:58.622Z,866.25
2018-09-24T11:47:58.720Z,568.13
2018-09-24T11:48:58.769Z,2098.13
2018-09-24T11:49:58.817Z,748.13
2018-09-24T11:50:58.865Z,2891.25
2018-09-24T11:51:58.914Z,3060.00
2018-09-24T11:52:58.962Z,1260.00
2018-09-24T11:53:59.010Z,3088.13
2018-09-24T11:54:59.057Z,3048.75
2018-09-24T11:55:59.105Z,2975.63
2018-09-24T11:56:59.154Z,2947.50
2018-09-24T11:57:59.200Z,3009.38
2018-09-24T11:58:59.247Z,3009.38
2018-09-24T11:59:59.296Z,2964.38
2018-09-24T12:00:59.343Z,2902.50
2018-09-24T12:01:59.398Z,3043.13
2018-09-24T12:02:59.439Z,3082.50
2018-09-24T12:03:59.487Z,3076.88
2018-09-24T12:04:59.537Z,3037.50
2018-09-24T12:05:59.585Z,3116.25
2018-09-24T12:06:59.633Z,3121.88
2018-09-24T12:07:59.682Z,3020.63
2018-09-24T12:08:59.733Z,3009.38
2018-09-24T12:09:59.781Z,3060.00
2018-09-24T12:10:59.830Z,3071.25
2018-09-24T12:11:59.880Z,3015.00
2018-09-24T12:12:59.930Z,3054.38
2018-09-24T12:13:59.980Z,3183.75
2018-09-24T12:15:00.028Z,3116.25
2018-09-24T12:16:00.077Z,3195.00
2018-09-24T12:17:00.126Z,3121.88
2018-09-24T12:18:00.181Z,3026.25
2018-09-24T12:19:00.226Z,3015.00
2018-09-24T12:20:00.274Z,3048.75
2018-09-24T12:21:00.324Z,3009.38
2018-09-24T12:22:00.372Z,2998.13
2018-09-24T12:23:00.421Z,2964.38
2018-09-24T12:24:00.486Z,2868.75
2018-09-24T12:25:00.524Z,2992.50
2018-09-24T12:26:00.570Z,2975.63
2018-09-24T12:27:00.620Z,3020.63
2018-09-24T12:28:00.669Z,3009.38
2018-09-24T12:29:00.741Z,2565.00
2018-09-24T12:30:00.771Z,540.00
2018-09-24T12:31:00.817Z,3054.38
2018-09-24T12:32:00.867Z,1136.25
2018-09-24T12:33:00.917Z,427.50
2018-09-24T12:34:00.967Z,517.50
2018-09-24T12:35:01.016Z,1473.75
2018-09-24T12:36:01.063Z,2880.00
2018-09-24T12:37:01.111Z,2880.00
2018-09-24T12:38:01.159Z,2846.25
2018-09-24T12:39:01.208Z,2913.75
2018-09-24T12:40:01.254Z,2795.63
2018-09-24T12:41:01.305Z,2446.88
2018-09-24T12:42:01.350Z,556.88
2018-09-24T12:43:01.397Z,1513.13
2018-09-24T12:44:01.446Z,2902.50
2018-09-24T12:45:01.494Z,2913.75
2018-09-24T12:46:01.544Z,2964.38
2018-09-24T12:47:01.589Z,2975.63